Time;durP1;ratioP1;P1;durP2;ratioP2;P2;SDS_P1;SDS_P2;PMS_P1;PMS_P2;Temp;Humidity;BMP_temperature;BMP_pressure;BME280_temperature;BME280_humidity;BME280_pressure;Samples;Min_cycle;Max_cycle;Signal;HPM_P1;HPM_P2
2021/08/08 00:01:55;;;;;;;6.15;2.03;;;14.10;99.90;;;;;;4934508;29;20034;-73
2021/08/08 00:04:22;;;;;;;7.25;2.13;;;14.10;99.90;;;;;;4933641;29;20030;-73
2021/08/08 00:06:48;;;;;;;4.32;1.70;;;14.00;99.90;;;;;;4917242;29;20028;-74
2021/08/08 00:09:13;;;;;;;4.65;1.60;;;13.90;99.90;;;;;;4937253;29;20098;-74
2021/08/08 00:11:39;;;;;;;2.78;1.50;;;13.90;99.90;;;;;;4942134;29;20063;-74
2021/08/08 00:14:05;;;;;;;3.00;1.70;;;13.80;99.90;;;;;;4934667;29;20028;-74
2021/08/08 00:16:31;;;;;;;3.28;1.80;;;13.90;99.90;;;;;;4916489;29;20031;-74
2021/08/08 00:18:57;;;;;;;10.48;1.70;;;13.90;99.90;;;;;;4934109;29;20027;-74
2021/08/08 00:21:23;;;;;;;4.30;1.80;;;14.00;99.90;;;;;;4934136;29;20038;-74
2021/08/08 00:23:49;;;;;;;6.70;1.67;;;13.90;99.90;;;;;;4933986;29;20059;-74
2021/08/08 00:26:14;;;;;;;8.80;1.95;;;13.90;99.90;;;;;;4933585;29;20058;-74
2021/08/08 00:28:40;;;;;;;3.05;1.70;;;13.80;99.90;;;;;;4934049;29;20086;-74
2021/08/08 00:31:06;;;;;;;9.57;1.67;;;13.80;99.90;;;;;;4933971;29;20082;-74
2021/08/08 00:33:31;;;;;;;6.03;1.80;;;13.80;99.90;;;;;;4934260;29;20023;-73
2021/08/08 00:35:57;;;;;;;7.60;2.40;;;13.80;99.90;;;;;;4933535;29;20031;-74
2021/08/08 00:38:23;;;;;;;4.28;1.67;;;13.70;99.90;;;;;;4933893;29;20038;-73
2021/08/08 00:40:49;;;;;;;7.53;1.88;;;13.70;99.90;;;;;;4934161;29;20028;-73
2021/08/08 00:43:15;;;;;;;5.95;1.65;;;13.70;99.90;;;;;;4934575;29;20026;-73
2021/08/08 00:45:40;;;;;;;4.55;1.77;;;13.80;99.90;;;;;;4936215;29;20031;-73
2021/08/08 00:48:06;;;;;;;7.60;1.70;;;13.80;99.90;;;;;;4937793;29;20079;-74
2021/08/08 00:50:31;;;;;;;5.65;1.80;;;13.80;99.90;;;;;;4937690;29;20538;-72
2021/08/08 00:52:57;;;;;;;4.20;2.00;;;13.80;99.90;;;;;;4937590;29;20063;-74
2021/08/08 00:55:23;;;;;;;4.07;2.05;;;13.90;99.90;;;;;;4937089;29;20027;-75
2021/08/08 00:57:48;;;;;;;5.75;2.03;;;13.80;99.90;;;;;;4936703;29;20115;-74
2021/08/08 01:00:14;;;;;;;6.55;2.03;;;13.80;99.90;;;;;;4937694;29;20395;-74
2021/08/08 01:02:51;;;;;;;6.43;1.98;;;13.70;99.90;;;;;;4938068;29;20434;-74
2021/08/08 01:05:23;;;;;;;6.75;2.08;;;13.70;99.90;;;;;;4936700;29;20053;-74
2021/08/08 01:07:55;;;;;;;8.90;2.47;;;13.70;99.90;;;;;;4937456;29;20034;-74
2021/08/08 01:10:21;;;;;;;13.73;3.30;;;13.70;99.90;;;;;;4937533;29;20032;-74
2021/08/08 01:12:49;;;;;;;3.40;2.72;;;13.70;99.90;;;;;;4937391;29;20506;-73
2021/08/08 01:15:15;;;;;;;5.15;2.13;;;13.70;99.90;;;;;;4936350;29;20094;-74
2021/08/08 01:17:43;;;;;;;2.92;1.88;;;13.70;99.90;;;;;;4920189;29;20027;-73
2021/08/08 01:20:12;;;;;;;5.38;2.30;;;13.60;99.90;;;;;;4937179;29;20451;-74
2021/08/08 01:22:46;;;;;;;7.28;2.33;;;13.60;99.90;;;;;;4937307;29;20023;-74
2021/08/08 01:25:13;;;;;;;8.13;2.10;;;13.60;99.90;;;;;;4936414;29;20078;-73
2021/08/08 01:27:39;;;;;;;8.63;2.53;;;13.60;99.90;;;;;;4938512;29;20035;-74
2021/08/08 01:30:06;;;;;;;5.22;2.40;;;13.60;99.90;;;;;;4938572;29;20036;-74
2021/08/08 01:32:33;;;;;;;7.88;2.25;;;13.60;99.90;;;;;;4939082;29;20655;-74
2021/08/08 01:35:03;;;;;;;9.15;2.83;;;13.50;99.90;;;;;;4939427;29;20448;-74
2021/08/08 01:37:31;;;;;;;10.00;2.47;;;13.60;99.90;;;;;;4939535;29;20514;-74
2021/08/08 01:40:19;;;;;;;7.43;2.40;;;13.60;99.90;;;;;;4939015;29;20020;-74
2021/08/08 01:42:47;;;;;;;9.63;2.67;;;13.60;99.90;;;;;;4937141;29;20030;-74
2021/08/08 01:45:15;;;;;;;8.65;2.55;;;13.60;99.90;;;;;;4936036;29;20020;-74
2021/08/08 01:47:48;;;;;;;10.77;3.20;;;13.70;99.90;;;;;;4936759;29;20028;-73
2021/08/08 01:50:16;;;;;;;4.90;3.00;;;13.60;99.90;;;;;;4936690;29;20501;-74
2021/08/08 01:52:41;;;;;;;4.70;2.85;;;13.70;99.90;;;;;;4936572;29;20039;-74
2021/08/08 01:55:09;;;;;;;7.15;3.00;;;13.70;99.90;;;;;;4935529;29;20404;-74
2021/08/08 01:57:36;;;;;;;8.13;2.55;;;13.70;99.90;;;;;;4936188;29;20024;-73
2021/08/08 02:00:05;;;;;;;9.40;2.78;;;13.60;99.90;;;;;;4936333;29;20050;-74
2021/08/08 02:02:31;;;;;;;6.72;2.95;;;13.60;99.90;;;;;;4936442;29;20023;-73
2021/08/08 02:04:57;;;;;;;5.53;2.30;;;13.60;99.90;;;;;;4935732;29;20060;-73
2021/08/08 02:07:23;;;;;;;7.40;2.95;;;13.50;99.90;;;;;;5046731;23;20046;-72
2021/08/08 02:09:49;;;;;;;7.85;2.83;;;13.50;99.90;;;;;;4988657;28;20383;-72
2021/08/08 02:12:14;;;;;;;8.20;3.10;;;13.50;99.90;;;;;;4994371;28;20387;-72
2021/08/08 02:14:40;;;;;;;9.70;3.03;;;13.50;99.90;;;;;;4993134;28;20061;-72
2021/08/08 02:17:07;;;;;;;15.27;4.22;;;13.50;99.90;;;;;;4994126;28;20026;-72
2021/08/08 02:19:33;;;;;;;10.73;3.88;;;13.50;99.90;;;;;;4994148;28;20026;-71
2021/08/08 02:22:01;;;;;;;8.48;3.42;;;13.60;99.90;;;;;;4994055;28;20022;-71
2021/08/08 02:24:29;;;;;;;9.38;4.03;;;13.70;99.90;;;;;;4993593;28;20026;-71
2021/08/08 02:26:55;;;;;;;8.23;3.50;;;13.60;99.90;;;;;;4994828;28;20022;-72
2021/08/08 02:29:21;;;;;;;10.50;3.47;;;13.50;99.90;;;;;;4995338;28;20113;-71
2021/08/08 02:31:47;;;;;;;12.13;3.00;;;13.40;99.90;;;;;;4994517;28;20034;-72
2021/08/08 02:34:13;;;;;;;6.68;2.80;;;13.40;99.90;;;;;;4994066;28;20026;-71
2021/08/08 02:36:39;;;;;;;4.15;2.75;;;13.30;99.90;;;;;;4992908;28;20433;-71
2021/08/08 02:39:06;;;;;;;5.18;2.92;;;13.30;99.90;;;;;;4993891;28;20086;-71
2021/08/08 02:41:31;;;;;;;7.22;3.53;;;13.30;99.90;;;;;;4994033;28;20097;-71
2021/08/08 02:43:57;;;;;;;7.15;4.18;;;13.20;99.90;;;;;;4993993;28;20097;-71
2021/08/08 02:46:23;;;;;;;8.90;4.32;;;13.10;99.90;;;;;;4993358;28;20038;-71
2021/08/08 02:48:49;;;;;;;4.68;3.67;;;13.20;99.90;;;;;;4993913;28;20022;-71
2021/08/08 02:51:15;;;;;;;8.25;4.50;;;13.10;99.90;;;;;;4993707;28;20030;-71
2021/08/08 02:53:41;;;;;;;14.18;5.32;;;13.10;99.90;;;;;;4976094;28;20030;-72
2021/08/08 02:56:07;;;;;;;6.75;4.63;;;13.10;99.90;;;;;;4994143;28;20084;-72
2021/08/08 02:58:33;;;;;;;7.68;3.97;;;13.10;99.90;;;;;;4994355;28;20030;-72
2021/08/08 03:00:58;;;;;;;12.43;3.70;;;13.00;99.90;;;;;;4994247;28;20022;-72
2021/08/08 03:03:24;;;;;;;14.98;4.05;;;13.10;99.90;;;;;;4993894;28;20050;-72
2021/08/08 03:05:50;;;;;;;8.65;4.43;;;13.00;99.90;;;;;;4992921;28;20026;-72
2021/08/08 03:08:15;;;;;;;13.85;3.95;;;13.00;99.90;;;;;;4992509;28;20030;-73
2021/08/08 03:10:41;;;;;;;7.60;3.60;;;12.90;99.90;;;;;;4993530;28;20030;-72
2021/08/08 03:13:07;;;;;;;8.68;3.78;;;12.90;99.90;;;;;;4993460;28;20109;-72
2021/08/08 03:15:32;;;;;;;6.68;3.85;;;12.90;99.90;;;;;;4977624;28;20106;-72
2021/08/08 03:17:58;;;;;;;7.80;4.60;;;12.90;99.90;;;;;;4973823;28;20027;-72
2021/08/08 03:20:24;;;;;;;9.15;3.85;;;12.80;99.90;;;;;;4973746;28;20099;-72
2021/08/08 03:22:50;;;;;;;10.63;3.58;;;12.80;99.90;;;;;;4973148;28;20018;-72
2021/08/08 03:25:15;;;;;;;6.47;3.35;;;12.70;99.90;;;;;;4973007;28;20030;-72
2021/08/08 03:27:41;;;;;;;8.07;3.80;;;12.70;99.90;;;;;;4973602;28;20035;-71
2021/08/08 03:30:08;;;;;;;8.75;3.47;;;12.70;99.90;;;;;;4973504;28;20098;-72
2021/08/08 03:32:34;;;;;;;5.20;3.78;;;12.80;99.90;;;;;;4973632;28;20481;-72
2021/08/08 03:35:00;;;;;;;9.43;4.03;;;12.70;99.90;;;;;;4973101;28;20111;-71
2021/08/08 03:37:26;;;;;;;7.28;4.03;;;12.70;99.90;;;;;;4973073;28;20118;-72
2021/08/08 03:39:51;;;;;;;11.75;4.18;;;12.80;99.90;;;;;;4973276;28;20029;-71
2021/08/08 03:42:17;;;;;;;8.23;4.95;;;12.70;99.90;;;;;;4973335;28;20062;-71
2021/08/08 03:44:43;;;;;;;9.85;3.33;;;12.60;99.90;;;;;;4972809;28;20477;-71
2021/08/08 03:47:09;;;;;;;8.85;4.30;;;12.60;99.90;;;;;;4973360;28;20054;-72
2021/08/08 03:49:34;;;;;;;5.43;3.65;;;12.50;99.90;;;;;;4972102;28;20031;-72
2021/08/08 03:52:00;;;;;;;7.03;4.40;;;12.50;99.90;;;;;;4972885;28;20058;-71
2021/08/08 03:54:26;;;;;;;10.65;4.15;;;12.50;99.90;;;;;;4955476;28;20039;-71
2021/08/08 03:56:52;;;;;;;7.65;4.75;;;12.60;99.90;;;;;;4973107;28;20030;-71
2021/08/08 03:59:18;;;;;;;8.50;3.38;;;12.50;99.90;;;;;;4973189;28;20385;-71
2021/08/08 04:01:44;;;;;;;6.10;3.75;;;12.50;99.90;;;;;;4973208;28;20062;-71
2021/08/08 04:04:10;;;;;;;8.95;4.90;;;12.40;99.90;;;;;;4972997;28;20024;-71
2021/08/08 04:06:35;;;;;;;11.13;4.10;;;12.40;99.90;;;;;;4972636;28;20450;-72
2021/08/08 04:09:01;;;;;;;18.55;5.75;;;12.40;99.90;;;;;;4973171;28;20085;-72
2021/08/08 04:11:27;;;;;;;12.18;5.40;;;12.40;99.90;;;;;;4973060;28;20113;-72
2021/08/08 04:13:52;;;;;;;4.25;3.78;;;12.40;99.90;;;;;;4974357;28;20037;-72
2021/08/08 04:16:18;;;;;;;11.85;4.07;;;12.40;99.90;;;;;;4991251;28;20030;-72
2021/08/08 04:18:44;;;;;;;11.27;3.97;;;12.30;99.90;;;;;;4974790;28;20030;-72
2021/08/08 04:21:09;;;;;;;11.07;4.30;;;12.40;99.90;;;;;;4992184;28;20026;-72
2021/08/08 04:23:36;;;;;;;5.40;4.60;;;12.50;99.90;;;;;;4992078;28;20057;-72
2021/08/08 04:26:02;;;;;;;12.95;5.60;;;12.50;99.90;;;;;;4992121;28;20388;-71
2021/08/08 04:28:28;;;;;;;6.75;4.30;;;12.40;99.90;;;;;;4992154;28;20030;-71
2021/08/08 04:30:53;;;;;;;7.07;4.43;;;12.50;99.90;;;;;;4992403;28;20041;-71
2021/08/08 04:33:19;;;;;;;14.27;7.30;;;12.50;99.90;;;;;;4992078;28;20066;-71
2021/08/08 04:35:45;;;;;;;10.55;7.57;;;12.40;99.90;;;;;;4990229;28;20089;-72
2021/08/08 04:38:10;;;;;;;11.38;7.25;;;12.40;99.90;;;;;;4991716;28;20052;-71
2021/08/08 04:40:36;;;;;;;13.10;5.95;;;12.50;99.90;;;;;;4992113;28;20018;-72
2021/08/08 04:43:05;;;;;;;5.95;5.45;;;12.60;99.90;;;;;;4992371;28;20023;-72
2021/08/08 04:45:31;;;;;;;13.90;5.32;;;12.60;99.90;;;;;;4976612;28;20019;-72
2021/08/08 04:47:57;;;;;;;9.75;5.18;;;12.60;99.90;;;;;;4971435;28;20027;-72
2021/08/08 04:50:23;;;;;;;8.77;5.20;;;12.70;99.90;;;;;;4972397;28;20448;-72
2021/08/08 04:52:48;;;;;;;8.13;5.22;;;12.70;99.90;;;;;;4972602;28;20023;-72
2021/08/08 04:55:15;;;;;;;5.68;4.65;;;12.70;99.90;;;;;;4972195;28;20425;-72
2021/08/08 04:57:42;;;;;;;7.10;4.50;;;12.80;99.90;;;;;;4972662;28;20027;-72
2021/08/08 05:00:08;;;;;;;9.70;4.65;;;12.90;99.90;;;;;;4972767;28;20018;-72
2021/08/08 05:02:35;;;;;;;9.73;4.57;;;13.00;99.90;;;;;;4987597;28;20049;-72
2021/08/08 05:05:07;;;;;;;6.88;3.95;;;13.00;99.90;;;;;;4972046;28;20508;-72
2021/08/08 05:07:38;;;;;;;9.35;4.53;;;13.00;99.90;;;;;;4972091;28;20049;-72
2021/08/08 05:10:14;;;;;;;10.68;4.45;;;13.00;99.90;;;;;;4972608;28;20064;-72
2021/08/08 05:12:40;;;;;;;8.95;4.70;;;13.10;99.90;;;;;;4972358;28;20023;-72
2021/08/08 05:15:07;;;;;;;17.38;6.15;;;13.20;99.90;;;;;;4983448;28;20038;-72
2021/08/08 05:17:33;;;;;;;8.68;6.35;;;13.20;99.90;;;;;;4974042;28;20449;-72
2021/08/08 05:19:59;;;;;;;6.70;4.90;;;13.20;99.90;;;;;;4991837;28;20026;-72
2021/08/08 05:22:24;;;;;;;8.05;4.43;;;13.10;99.90;;;;;;4991531;28;20022;-72
2021/08/08 05:24:50;;;;;;;4.43;3.35;;;13.10;99.90;;;;;;4991285;28;20532;-73
2021/08/08 05:27:16;;;;;;;5.18;3.38;;;13.00;99.90;;;;;;4991649;28;20030;-72
2021/08/08 05:29:41;;;;;;;4.03;2.83;;;13.10;99.90;;;;;;4991671;28;20026;-71
2021/08/08 05:32:07;;;;;;;6.28;2.60;;;13.20;99.90;;;;;;4994857;28;20099;-71
2021/08/08 05:34:33;;;;;;;4.00;2.75;;;13.20;99.90;;;;;;4993417;28;20062;-72
2021/08/08 05:36:59;;;;;;;8.45;3.00;;;13.30;99.90;;;;;;4979693;28;20529;-71
2021/08/08 05:39:24;;;;;;;4.75;2.60;;;13.40;99.90;;;;;;4968299;28;20027;-72
2021/08/08 05:41:50;;;;;;;9.35;2.90;;;13.40;99.90;;;;;;4976088;28;20070;-72
2021/08/08 05:44:16;;;;;;;5.30;2.95;;;13.50;99.90;;;;;;4988987;28;20488;-71
2021/08/08 05:46:41;;;;;;;8.63;2.92;;;13.60;99.90;;;;;;4974700;28;20058;-72
2021/08/08 05:49:08;;;;;;;5.10;3.38;;;13.60;99.90;;;;;;4974519;28;20378;-72
2021/08/08 05:51:36;;;;;;;6.60;3.22;;;13.60;99.90;;;;;;4974799;28;20500;-71
2021/08/08 05:54:02;;;;;;;7.32;3.15;;;13.70;99.90;;;;;;4974968;28;20031;-71
2021/08/08 05:56:28;;;;;;;7.97;3.08;;;13.70;99.90;;;;;;4993540;28;20113;-71
2021/08/08 05:58:53;;;;;;;4.22;3.08;;;13.70;99.90;;;;;;4993833;28;20165;-71
2021/08/08 06:01:19;;;;;;;8.43;3.22;;;13.80;99.90;;;;;;4994362;28;20034;-71
2021/08/08 06:03:45;;;;;;;5.10;3.42;;;13.90;99.90;;;;;;4994335;28;20026;-72
2021/08/08 06:06:10;;;;;;;17.38;3.35;;;13.90;99.90;;;;;;4993361;28;20041;-71
2021/08/08 06:08:36;;;;;;;11.25;3.05;;;14.00;99.90;;;;;;4993464;28;20040;-71
2021/08/08 06:11:03;;;;;;;9.25;4.00;;;13.90;99.90;;;;;;4994142;28;20101;-71
2021/08/08 06:13:28;;;;;;;5.00;3.38;;;14.00;99.90;;;;;;4994097;28;20030;-71
2021/08/08 06:15:54;;;;;;;5.97;3.20;;;14.10;99.90;;;;;;4993001;28;20030;-72
2021/08/08 06:18:20;;;;;;;5.22;2.75;;;14.00;99.90;;;;;;4993645;28;20034;-72
2021/08/08 06:20:45;;;;;;;8.00;3.60;;;14.20;99.90;;;;;;4994127;28;20042;-71
2021/08/08 06:23:11;;;;;;;3.45;1.75;;;14.40;99.90;;;;;;4993754;28;20049;-71
2021/08/08 06:25:37;;;;;;;4.22;1.75;;;14.70;99.90;;;;;;4993112;28;20435;-72
2021/08/08 06:28:02;;;;;;;2.75;1.95;;;14.80;99.90;;;;;;4993282;28;20022;-72
2021/08/08 06:30:28;;;;;;;6.85;1.90;;;14.80;99.90;;;;;;4992771;28;20040;-72
2021/08/08 06:32:54;;;;;;;3.33;1.88;;;14.80;99.90;;;;;;4981855;28;20032;-71
2021/08/08 06:35:20;;;;;;;3.58;2.00;;;14.80;99.90;;;;;;4993263;28;20460;-72
2021/08/08 06:37:45;;;;;;;4.45;2.30;;;14.80;99.90;;;;;;4992944;28;20152;-72
2021/08/08 06:40:12;;;;;;;5.38;2.28;;;14.90;99.90;;;;;;4993489;28;20543;-72
2021/08/08 06:42:38;;;;;;;3.67;1.80;;;14.90;99.90;;;;;;4992542;28;20031;-71
2021/08/08 06:45:05;;;;;;;7.28;1.90;;;15.00;99.90;;;;;;4992508;28;20488;-72
2021/08/08 06:47:30;;;;;;;5.07;1.98;;;15.20;99.90;;;;;;4993251;28;20088;-73
2021/08/08 06:49:56;;;;;;;2.60;1.95;;;15.30;99.90;;;;;;4993220;28;20038;-75
2021/08/08 06:52:21;;;;;;;4.47;1.33;;;15.40;99.90;;;;;;4993030;28;20030;-74
2021/08/08 06:54:47;;;;;;;5.97;1.67;;;15.70;99.90;;;;;;4992564;28;20037;-74
2021/08/08 06:57:22;;;;;;;4.78;1.15;;;15.90;99.90;;;;;;4992372;28;20034;-75
2021/08/08 06:59:48;;;;;;;4.07;1.13;;;16.30;99.90;;;;;;4992901;28;20034;-75
2021/08/08 07:02:13;;;;;;;4.18;1.45;;;16.70;99.90;;;;;;4985047;28;20401;-75
2021/08/08 07:04:39;;;;;;;5.57;1.10;;;16.80;99.90;;;;;;4987118;28;20027;-72
2021/08/08 07:07:05;;;;;;;3.42;0.98;;;17.00;99.90;;;;;;4980836;28;20038;-72
2021/08/08 07:09:30;;;;;;;1.30;0.70;;;17.10;99.90;;;;;;4972072;28;20496;-72
2021/08/08 07:11:56;;;;;;;3.78;0.70;;;17.20;99.90;;;;;;4973106;28;20031;-71
2021/08/08 07:14:22;;;;;;;3.30;0.55;;;17.20;99.90;;;;;;4978262;28;20018;-72
2021/08/08 07:16:47;;;;;;;3.67;0.98;;;17.20;99.90;;;;;;4991365;28;20050;-72
2021/08/08 07:19:13;;;;;;;1.00;0.50;;;17.30;99.90;;;;;;4992028;28;20038;-72
2021/08/08 07:21:38;;;;;;;2.53;0.70;;;17.40;99.90;;;;;;4992959;28;20437;-71
2021/08/08 07:24:04;;;;;;;0.80;0.52;;;17.60;99.90;;;;;;4992483;28;20385;-72
2021/08/08 07:26:30;;;;;;;2.92;0.80;;;17.70;99.90;;;;;;4991885;28;20369;-72
2021/08/08 07:28:56;;;;;;;1.75;0.50;;;17.70;99.90;;;;;;4991945;28;20030;-72
2021/08/08 07:31:22;;;;;;;1.92;0.68;;;17.80;99.90;;;;;;4978564;28;20398;-72
2021/08/08 07:33:47;;;;;;;3.25;0.90;;;18.00;99.90;;;;;;4973270;28;20026;-72
2021/08/08 07:36:13;;;;;;;2.08;0.55;;;18.30;99.90;;;;;;4972480;28;20150;-72
2021/08/08 07:38:39;;;;;;;3.33;0.80;;;18.30;99.90;;;;;;4956374;28;20034;-72
2021/08/08 07:41:07;;;;;;;1.33;0.70;;;18.30;99.90;;;;;;4976196;28;20061;-72
2021/08/08 07:43:33;;;;;;;0.95;0.45;;;18.20;99.90;;;;;;4957500;28;20085;-73
2021/08/08 07:45:59;;;;;;;0.95;0.70;;;18.30;99.90;;;;;;4991986;28;20034;-73
2021/08/08 07:48:24;;;;;;;1.08;0.70;;;18.10;99.90;;;;;;4993220;28;20023;-72
2021/08/08 07:50:50;;;;;;;0.88;0.65;;;18.40;99.90;;;;;;4992401;28;20026;-72
2021/08/08 07:53:16;;;;;;;2.38;0.60;;;18.80;99.90;;;;;;4991825;28;20070;-73
2021/08/08 07:55:41;;;;;;;7.28;0.70;;;19.00;99.90;;;;;;4991312;28;20473;-72
2021/08/08 07:58:07;;;;;;;2.03;0.60;;;19.40;99.90;;;;;;4990603;28;20043;-72
2021/08/08 08:00:32;;;;;;;3.03;0.57;;;19.40;99.90;;;;;;4991910;28;20397;-73
2021/08/08 08:02:58;;;;;;;2.65;0.60;;;19.10;99.90;;;;;;4991093;28;20069;-73
2021/08/08 08:05:24;;;;;;;2.38;0.60;;;18.70;99.90;;;;;;4991602;28;20113;-74
2021/08/08 08:07:49;;;;;;;1.33;0.70;;;18.80;99.90;;;;;;4991551;28;20045;-73
2021/08/08 08:10:15;;;;;;;4.28;0.70;;;18.50;99.90;;;;;;4991965;28;20065;-73
2021/08/08 08:12:41;;;;;;;3.83;0.82;;;18.40;99.90;;;;;;4991981;28;20117;-73
2021/08/08 08:15:07;;;;;;;1.77;0.80;;;18.60;99.90;;;;;;4991196;28;20372;-72
2021/08/08 08:17:32;;;;;;;2.20;0.60;;;18.70;99.90;;;;;;4991745;28;20100;-72
2021/08/08 08:19:58;;;;;;;5.65;0.90;;;19.10;99.90;;;;;;4991684;28;20422;-72
2021/08/08 08:22:24;;;;;;;7.80;1.05;;;19.20;99.90;;;;;;4991873;28;20022;-73
2021/08/08 08:24:49;;;;;;;6.63;0.80;;;19.20;99.90;;;;;;4990940;28;20026;-72
2021/08/08 08:27:15;;;;;;;3.58;0.70;;;19.70;99.90;;;;;;4990656;28;20515;-72
2021/08/08 08:29:41;;;;;;;4.38;0.73;;;20.40;99.90;;;;;;4991236;28;20392;-72
2021/08/08 08:32:07;;;;;;;2.55;0.82;;;20.70;99.90;;;;;;4977898;28;20031;-73
2021/08/08 08:34:33;;;;;;;3.80;0.90;;;21.10;99.90;;;;;;4971858;28;20149;-72
2021/08/08 08:36:59;;;;;;;3.65;1.02;;;20.50;99.90;;;;;;4972411;28;20437;-71
2021/08/08 08:39:25;;;;;;;6.20;0.88;;;20.60;99.90;;;;;;4971859;28;20027;-72
2021/08/08 08:41:54;;;;;;;3.20;0.63;;;20.50;99.90;;;;;;4972003;28;20473;-73
2021/08/08 08:44:22;;;;;;;1.40;0.70;;;20.90;99.90;;;;;;4971856;28;20416;-73
2021/08/08 08:46:48;;;;;;;3.45;0.70;;;21.30;99.90;;;;;;4972040;28;20107;-72
2021/08/08 08:49:20;;;;;;;1.17;0.50;;;21.60;99.90;;;;;;4972055;28;20114;-72
2021/08/08 08:51:50;;;;;;;1.60;0.63;;;21.10;99.90;;;;;;4972313;28;20396;-72
2021/08/08 08:54:18;;;;;;;1.30;0.55;;;20.70;99.90;;;;;;4971327;28;20039;-72
2021/08/08 08:56:44;;;;;;;2.03;0.70;;;20.80;99.90;;;;;;4971987;28;20077;-73
2021/08/08 08:59:11;;;;;;;1.50;0.60;;;21.60;99.90;;;;;;4988025;28;20026;-73
2021/08/08 09:01:39;;;;;;;1.25;0.57;;;21.80;99.90;;;;;;4991317;28;20080;-73
2021/08/08 09:04:04;;;;;;;3.20;0.60;;;21.70;99.90;;;;;;4990375;28;20026;-73
2021/08/08 09:06:30;;;;;;;2.17;0.73;;;21.60;99.90;;;;;;4992147;28;20037;-73
2021/08/08 09:08:56;;;;;;;4.32;0.80;;;21.10;99.90;;;;;;4995506;28;20038;-72
2021/08/08 09:11:21;;;;;;;2.35;0.90;;;21.20;99.90;;;;;;4994981;28;20069;-72
2021/08/08 09:13:53;;;;;;;2.33;0.60;;;21.80;99.90;;;;;;4987853;28;20477;-73
2021/08/08 09:16:21;;;;;;;3.65;0.80;;;21.40;99.90;;;;;;4994510;28;20072;-73
2021/08/08 09:18:57;;;;;;;1.95;0.60;;;21.00;99.90;;;;;;4994642;28;20104;-73
2021/08/08 09:21:23;;;;;;;4.60;0.80;;;20.70;99.90;;;;;;4994364;28;20018;-73
2021/08/08 09:23:55;;;;;;;3.97;0.60;;;20.50;99.90;;;;;;4994540;28;20098;-73
2021/08/08 09:26:47;;;;;;;1.15;0.70;;;20.50;99.90;;;;;;4994221;28;20051;-74
2021/08/08 09:29:15;;;;;;;2.83;0.88;;;21.10;99.90;;;;;;4992717;28;20109;-73
2021/08/08 09:31:47;;;;;;;4.25;0.82;;;20.70;99.90;;;;;;4983961;28;20066;-74
2021/08/08 09:34:22;;;;;;;4.53;0.80;;;20.30;99.90;;;;;;4990345;28;20034;-73
2021/08/08 09:36:48;;;;;;;3.05;0.75;;;20.70;99.90;;;;;;4975816;28;20054;-73
2021/08/08 09:39:32;;;;;;;3.40;0.70;;;21.00;99.90;;;;;;4975432;28;20496;-72
2021/08/08 09:42:15;;;;;;;5.32;0.88;;;21.10;99.90;;;;;;4989705;28;20070;-71
2021/08/08 09:45:02;;;;;;;2.60;0.80;;;21.50;99.90;;;;;;4974654;28;20445;-72
2021/08/08 09:47:39;;;;;;;2.20;0.75;;;21.60;99.90;;;;;;4989860;28;20019;-71
2021/08/08 09:50:07;;;;;;;2.22;0.90;;;21.90;99.90;;;;;;4974808;28;20031;-72
2021/08/08 09:52:34;;;;;;;2.00;0.77;;;21.70;99.90;;;;;;4974411;28;20030;-73
2021/08/08 09:55:00;;;;;;;1.80;0.70;;;21.70;99.90;;;;;;4974303;28;20050;-72
2021/08/08 09:57:36;;;;;;;5.78;0.80;;;21.50;99.90;;;;;;4977077;28;20746;-72
2021/08/08 10:00:02;;;;;;;1.52;0.82;;;21.70;99.90;;;;;;4984859;28;20018;-72
2021/08/08 10:02:27;;;;;;;1.45;0.70;;;22.20;99.90;;;;;;4989475;28;20384;-74
2021/08/08 10:04:53;;;;;;;2.55;0.93;;;22.60;99.90;;;;;;4993496;28;20026;-72
2021/08/08 10:07:19;;;;;;;1.17;0.52;;;22.90;99.90;;;;;;4993483;28;20042;-73
2021/08/08 10:09:46;;;;;;;1.48;0.60;;;23.50;99.90;;;;;;4993967;28;20080;-73
2021/08/08 10:12:18;;;;;;;3.13;0.73;;;23.20;99.90;;;;;;4994083;28;20049;-75
2021/08/08 10:14:44;;;;;;;0.73;0.70;;;23.70;99.90;;;;;;4986788;28;20026;-76
2021/08/08 10:17:12;;;;;;;5.88;0.98;;;24.20;97.60;;;;;;4983889;28;20034;-74
2021/08/08 10:19:40;;;;;;;1.23;0.63;;;24.20;99.90;;;;;;4981298;28;20026;-75
2021/08/08 10:22:06;;;;;;;3.38;0.82;;;23.50;98.10;;;;;;4984494;28;20109;-75
2021/08/08 10:24:32;;;;;;;2.53;0.50;;;23.30;99.90;;;;;;4981616;28;20089;-76
2021/08/08 10:26:58;;;;;;;1.58;0.45;;;24.00;98.10;;;;;;4983849;28;20145;-75
2021/08/08 10:29:24;;;;;;;1.73;0.70;;;23.30;98.00;;;;;;4976967;28;20492;-75
2021/08/08 10:31:50;;;;;;;2.67;0.60;;;23.10;98.60;;;;;;4981410;28;20425;-76
2021/08/08 10:34:15;;;;;;;1.48;0.90;;;23.90;96.70;;;;;;4983454;28;20484;-77
2021/08/08 10:36:41;;;;;;;1.10;0.60;;;22.90;97.20;;;;;;4980741;28;20018;-77
2021/08/08 10:39:11;;;;;;;0.98;0.70;;;23.40;96.50;;;;;;4982395;28;20050;-76
2021/08/08 10:41:38;;;;;;;1.08;0.70;;;23.20;95.30;;;;;;4981918;28;20023;-75
2021/08/08 10:44:05;;;;;;;3.38;0.85;;;21.90;97.90;;;;;;4972844;28;20393;-74
2021/08/08 10:46:41;;;;;;;4.00;0.75;;;21.80;98.90;;;;;;4973259;28;20381;-74
2021/08/08 10:49:07;;;;;;;1.85;0.88;;;22.70;99.90;;;;;;4973286;28;20649;-71
2021/08/08 10:51:33;;;;;;;0.98;0.68;;;22.70;98.80;;;;;;4973870;28;20030;-70
2021/08/08 10:54:04;;;;;;;1.73;0.80;;;23.30;97.20;;;;;;4973078;28;20141;-70
2021/08/08 10:56:47;;;;;;;1.10;0.50;;;23.90;95.70;;;;;;4971661;28;20093;-71
2021/08/08 10:59:17;;;;;;;3.42;0.88;;;24.90;97.00;;;;;;4989676;28;20026;-72
2021/08/08 11:01:43;;;;;;;1.23;0.52;;;24.70;94.10;;;;;;4992884;28;20030;-72
2021/08/08 11:04:09;;;;;;;1.40;0.60;;;24.40;93.20;;;;;;4992786;28;20041;-71
2021/08/08 11:06:36;;;;;;;3.38;0.93;;;23.60;94.40;;;;;;4992085;28;20034;-71
2021/08/08 11:09:04;;;;;;;1.25;0.73;;;23.40;93.10;;;;;;4992418;28;20018;-71
2021/08/08 11:11:35;;;;;;;1.67;0.70;;;23.90;94.70;;;;;;4992785;28;20106;-71
2021/08/08 11:14:21;;;;;;;1.55;0.60;;;25.50;93.10;;;;;;4992514;28;20105;-73
2021/08/08 11:17:04;;;;;;;1.48;0.65;;;25.50;91.70;;;;;;4992274;28;20112;-72
2021/08/08 11:19:32;;;;;;;1.52;0.65;;;24.40;91.80;;;;;;4992686;28;20497;-73
2021/08/08 11:22:23;;;;;;;1.02;0.70;;;25.30;92.50;;;;;;4975690;28;20485;-73
2021/08/08 11:25:04;;;;;;;1.20;0.70;;;24.80;90.80;;;;;;4991629;28;20030;-74
2021/08/08 11:27:36;;;;;;;2.70;1.00;;;24.80;92.20;;;;;;4992030;28;20134;-73
2021/08/08 11:30:08;;;;;;;1.90;0.60;;;24.60;92.00;;;;;;4992455;28;20431;-72
2021/08/08 11:32:34;;;;;;;;;;;24.60;92.40;;;;;;4975315;28;20027;-74
2021/08/08 11:35:14;;;;;;;2.22;0.85;;;25.20;92.00;;;;;;4978193;28;19933;-74
2021/08/08 11:37:48;;;;;;;1.30;0.60;;;26.30;91.40;;;;;;4976990;28;20027;-75
2021/08/08 11:40:24;;;;;;;4.32;0.88;;;25.30;86.90;;;;;;4974009;28;20065;-74
2021/08/08 11:42:55;;;;;;;2.75;0.98;;;24.30;91.60;;;;;;4987829;28;20030;-75
2021/08/08 11:45:34;;;;;;;2.55;0.50;;;25.10;90.70;;;;;;4988778;28;20019;-75
2021/08/08 11:48:00;;;;;;;3.42;0.80;;;25.20;90.50;;;;;;4992362;28;20022;-76
2021/08/08 11:50:28;;;;;;;0.95;0.65;;;26.00;88.80;;;;;;4991754;28;20046;-75
2021/08/08 11:52:59;;;;;;;1.25;0.70;;;25.30;86.80;;;;;;4992475;28;20489;-76
2021/08/08 11:55:25;;;;;;;1.92;0.90;;;25.00;90.00;;;;;;4988360;28;20030;-75
2021/08/08 11:57:52;;;;;;;3.13;0.60;;;24.80;90.60;;;;;;4978727;28;20046;-76
2021/08/08 12:00:29;;;;;;;3.65;0.90;;;24.50;91.30;;;;;;4993044;28;20026;-75
2021/08/08 12:02:56;;;;;;;2.35;0.65;;;24.60;89.70;;;;;;4993668;28;20459;-75
2021/08/08 12:05:22;;;;;;;1.48;0.70;;;23.40;90.60;;;;;;4991467;28;20045;-75
2021/08/08 12:07:50;;;;;;;1.25;0.47;;;23.20;90.90;;;;;;4991479;28;20070;-76
2021/08/08 12:10:28;;;;;;;1.17;0.60;;;23.00;90.60;;;;;;4991835;28;20026;-75
2021/08/08 12:12:53;;;;;;;1.63;0.90;;;22.40;92.10;;;;;;4992473;28;20041;-76
2021/08/08 12:15:31;;;;;;;3.00;0.80;;;22.80;92.00;;;;;;4991423;28;20038;-76
2021/08/08 12:17:58;;;;;;;1.90;0.88;;;22.90;92.60;;;;;;4993093;28;20053;-76
2021/08/08 12:20:34;;;;;;;5.32;1.00;;;22.90;90.30;;;;;;4992529;28;20029;-75
2021/08/08 12:23:05;;;;;;;1.83;0.60;;;23.20;91.40;;;;;;4991710;28;20068;-74
2021/08/08 12:25:31;;;;;;;1.58;0.70;;;23.30;93.00;;;;;;4973498;28;20121;-75
2021/08/08 12:27:56;;;;;;;1.13;0.63;;;23.90;91.30;;;;;;4974152;28;20457;-73
2021/08/08 12:30:27;;;;;;;1.65;0.52;;;24.60;92.10;;;;;;4991624;28;20033;-74
2021/08/08 12:33:05;;;;;;;3.72;0.70;;;24.90;89.50;;;;;;4972049;28;20501;-75
2021/08/08 12:35:40;;;;;;;9.35;0.90;;;25.70;85.20;;;;;;4989698;28;20034;-74
2021/08/08 12:38:11;;;;;;;2.03;0.80;;;26.00;89.50;;;;;;4991194;28;20042;-74
2021/08/08 12:40:42;;;;;;;2.33;0.87;;;26.20;82.60;;;;;;4994062;28;20081;-77
2021/08/08 12:43:08;;;;;;;2.30;0.70;;;26.10;82.40;;;;;;4995442;28;20026;-73
2021/08/08 12:45:35;;;;;;;2.08;0.70;;;25.20;81.60;;;;;;4994931;28;20253;-73
2021/08/08 12:48:01;;;;;;;2.90;0.88;;;24.10;83.80;;;;;;4995727;28;20245;-73